createdAt,value
2019-05-06T00:02:13.659Z,5.00
2019-05-06T00:04:58.752Z,4.90
2019-05-06T00:07:51.109Z,4.90
2019-05-06T00:10:36.508Z,4.90
2019-05-06T00:13:21.637Z,4.90
2019-05-06T00:16:07.313Z,4.90
2019-05-06T00:18:54.027Z,4.70
2019-05-06T00:21:39.471Z,4.80
2019-05-06T00:24:27.801Z,4.80
2019-05-06T00:27:20.254Z,4.70
2019-05-06T00:30:05.346Z,4.70
2019-05-06T00:32:50.592Z,4.60
2019-05-06T00:35:35.769Z,4.60
2019-05-06T00:38:20.966Z,4.50
2019-05-06T00:41:08.745Z,4.50
2019-05-06T00:43:54.710Z,4.50
2019-05-06T00:46:40.081Z,4.40
2019-05-06T00:49:25.501Z,4.40
2019-05-06T00:52:10.934Z,4.30
2019-05-06T00:54:56.310Z,4.20
2019-05-06T00:57:44.470Z,4.10
2019-05-06T01:00:33.710Z,4.10
2019-05-06T01:03:23.650Z,4.00
2019-05-06T01:06:10.170Z,3.90
2019-05-06T01:08:55.159Z,3.80
2019-05-06T01:11:40.907Z,3.70
2019-05-06T01:14:31.959Z,3.50
2019-05-06T01:17:17.622Z,3.40
2019-05-06T01:20:04.324Z,3.30
2019-05-06T01:22:50.001Z,3.20
2019-05-06T01:25:35.674Z,3.10
2019-05-06T01:28:20.621Z,3.00
2019-05-06T01:31:05.550Z,2.80
2019-05-06T01:33:50.624Z,2.70
2019-05-06T01:36:35.674Z,2.60
2019-05-06T01:39:31.290Z,2.50
2019-05-06T01:42:24.665Z,2.40
2019-05-06T01:45:09.602Z,2.40
2019-05-06T01:47:54.512Z,2.30
2019-05-06T01:50:39.385Z,2.30
2019-05-06T01:53:24.405Z,2.20
2019-05-06T01:56:09.233Z,2.20
2019-05-06T01:58:54.253Z,2.20
2019-05-06T02:01:53.512Z,2.10
2019-05-06T02:04:27.252Z,2.10
2019-05-06T02:07:14.318Z,2.10
2019-05-06T02:09:59.317Z,2.00
2019-05-06T02:12:44.557Z,2.00
2019-05-06T02:15:29.534Z,2.00
2019-05-06T02:18:16.658Z,1.90
2019-05-06T02:21:16.317Z,1.80
2019-05-06T02:24:04.346Z,1.80
2019-05-06T02:26:49.758Z,1.80
2019-05-06T02:29:39.385Z,1.70
2019-05-06T02:32:55.784Z,1.70
2019-05-06T02:35:59.023Z,1.60
2019-05-06T02:38:48.096Z,1.60
2019-05-06T02:41:33.525Z,1.50
2019-05-06T02:44:18.277Z,1.60
2019-05-06T02:47:22.836Z,1.60
2019-05-06T02:50:13.085Z,1.50
2019-05-06T02:52:57.511Z,1.50
2019-05-06T02:55:43.208Z,1.40
2019-05-06T02:58:28.142Z,1.40
2019-05-06T03:01:13.685Z,1.30
2019-05-06T03:03:59.216Z,1.30
2019-05-06T03:06:44.878Z,1.20
2019-05-06T03:09:33.722Z,1.10
2019-05-06T03:12:18.999Z,1.20
2019-05-06T03:15:04.666Z,1.40
2019-05-06T03:17:50.211Z,1.30
2019-05-06T03:20:37.963Z,1.20
2019-05-06T03:23:24.498Z,1.10
2019-05-06T03:26:13.415Z,0.90
2019-05-06T03:28:56.962Z,0.90
2019-05-06T03:31:46.389Z,0.80
2019-05-06T03:34:52.185Z,0.80
2019-05-06T03:37:17.670Z,0.70
2019-05-06T03:40:03.256Z,0.70
2019-05-06T03:42:48.478Z,0.80
2019-05-06T03:45:42.993Z,0.70
2019-05-06T03:48:33.285Z,0.70
2019-05-06T03:51:18.040Z,0.70
2019-05-06T03:54:04.002Z,0.80
2019-05-06T03:56:49.657Z,0.80
2019-05-06T03:59:35.110Z,0.80
2019-05-06T04:02:23.653Z,0.80
2019-05-06T04:05:07.659Z,0.80
2019-05-06T04:07:53.268Z,0.90
2019-05-06T04:10:38.703Z,0.90
2019-05-06T04:13:23.687Z,1.00
2019-05-06T04:16:37.490Z,1.00
2019-05-06T04:19:29.414Z,1.00
2019-05-06T04:22:44.042Z,1.00
2019-05-06T04:25:43.457Z,1.10
2019-05-06T04:28:33.964Z,1.10
2019-05-06T04:31:17.849Z,1.20
2019-05-06T04:34:12.756Z,1.30
2019-05-06T04:36:53.088Z,1.40
2019-05-06T04:39:37.355Z,1.50
2019-05-06T04:42:26.799Z,1.50
2019-05-06T04:45:13.470Z,1.40
2019-05-06T04:47:57.970Z,1.50
2019-05-06T04:50:44.568Z,1.50
2019-05-06T04:53:33.708Z,1.60
2019-05-06T04:56:17.818Z,1.70
2019-05-06T04:59:06.220Z,1.70
2019-05-06T05:01:53.182Z,1.80
2019-05-06T05:04:37.982Z,1.90
2019-05-06T05:07:23.254Z,2.00
2019-05-06T05:10:15.489Z,2.00
2019-05-06T05:13:18.222Z,2.10
2019-05-06T05:16:15.585Z,2.10
2019-05-06T05:19:04.542Z,2.20
2019-05-06T05:21:49.629Z,2.40
2019-05-06T05:24:34.933Z,2.40
2019-05-06T05:27:21.904Z,2.50
2019-05-06T05:30:07.379Z,2.60
2019-05-06T05:32:52.518Z,2.70
2019-05-06T05:35:38.402Z,2.80
2019-05-06T05:38:23.393Z,2.90
2019-05-06T05:41:08.729Z,3.00
2019-05-06T05:44:02.355Z,3.00
2019-05-06T05:46:48.071Z,3.10
2019-05-06T05:49:37.827Z,3.30
2019-05-06T05:52:23.115Z,3.40
2019-05-06T05:55:08.585Z,3.60
2019-05-06T05:57:53.814Z,4.00
2019-05-06T06:00:39.093Z,4.20
2019-05-06T06:03:24.633Z,4.50
2019-05-06T06:06:12.450Z,4.90
2019-05-06T06:08:56.973Z,5.40
2019-05-06T06:12:07.842Z,5.70
2019-05-06T06:15:22.407Z,5.90
2019-05-06T06:18:27.689Z,6.10
2019-05-06T06:21:28.311Z,6.60
2019-05-06T06:24:22.568Z,7.20
2019-05-06T06:27:08.295Z,7.70
2019-05-06T06:29:53.531Z,8.10
2019-05-06T06:32:38.661Z,8.40
2019-05-06T06:35:29.583Z,8.90
2019-05-06T06:38:23.881Z,9.20
2019-05-06T06:41:08.878Z,9.60
2019-05-06T06:43:58.626Z,10.40
2019-05-06T06:46:43.603Z,10.70
2019-05-06T06:49:28.794Z,11.10
2019-05-06T06:52:14.917Z,11.30
2019-05-06T06:55:02.350Z,11.10
2019-05-06T06:58:11.869Z,10.80
2019-05-06T07:01:18.489Z,10.50
2019-05-06T07:04:11.268Z,10.10
2019-05-06T07:06:55.198Z,9.80
2019-05-06T07:09:41.919Z,10.20
2019-05-06T07:12:27.589Z,11.10
2019-05-06T07:15:12.753Z,12.40
2019-05-06T07:17:58.526Z,13.50
2019-05-06T07:21:18.408Z,15.10
2019-05-06T07:24:03.870Z,16.50
2019-05-06T07:26:53.453Z,16.30
2019-05-06T07:29:38.399Z,14.10
2019-05-06T07:32:23.317Z,11.80
2019-05-06T07:35:08.853Z,10.20
2019-05-06T07:37:54.008Z,9.10
2019-05-06T07:40:41.900Z,8.70
2019-05-06T07:43:49.386Z,8.60
2019-05-06T07:46:57.416Z,8.60
2019-05-06T07:49:43.398Z,8.60
2019-05-06T07:52:32.418Z,9.10
2019-05-06T07:55:17.155Z,10.00
2019-05-06T07:58:02.939Z,10.00
2019-05-06T08:00:48.207Z,9.50
2019-05-06T08:03:33.385Z,9.60
2019-05-06T08:06:18.518Z,11.70
2019-05-06T08:09:05.973Z,13.40
2019-05-06T08:11:53.059Z,13.30
2019-05-06T08:14:43.093Z,12.30
2019-05-06T08:17:33.104Z,11.40
2019-05-06T08:20:18.402Z,10.80
2019-05-06T08:23:09.710Z,9.90
2019-05-06T08:26:09.035Z,9.60
2019-05-06T08:28:44.488Z,9.40
2019-05-06T08:31:28.897Z,9.30
2019-05-06T08:34:14.070Z,9.40
2019-05-06T08:37:05.301Z,9.70
2019-05-06T08:39:58.310Z,11.60
2019-05-06T08:42:43.127Z,13.20
2019-05-06T08:45:28.546Z,12.60
2019-05-06T08:48:14.354Z,11.60
2019-05-06T08:51:09.002Z,10.70
2019-05-06T08:53:58.070Z,9.80
2019-05-06T08:56:43.032Z,9.00
2019-05-06T08:59:27.926Z,8.60
2019-05-06T09:02:13.702Z,8.40
2019-05-06T09:04:59.754Z,8.40
2019-05-06T09:07:46.762Z,8.40
2019-05-06T09:10:32.549Z,8.50
2019-05-06T09:13:17.949Z,8.30
2019-05-06T09:16:03.390Z,8.40
2019-05-06T09:18:48.831Z,8.70
2019-05-06T09:21:34.078Z,9.00
2019-05-06T09:24:18.855Z,9.10
2019-05-06T09:27:16.946Z,9.20
2019-05-06T09:30:13.186Z,9.00
2019-05-06T09:32:58.389Z,9.00
2019-05-06T09:35:43.573Z,8.80
2019-05-06T09:38:32.057Z,8.60
2019-05-06T09:41:16.491Z,8.70
2019-05-06T09:44:03.090Z,8.80
2019-05-06T09:46:48.593Z,9.00
2019-05-06T09:49:34.046Z,9.10
2019-05-06T09:52:19.378Z,9.40
2019-05-06T09:55:12.858Z,10.20
2019-05-06T09:58:03.181Z,11.10
2019-05-06T10:00:50.686Z,11.50
2019-05-06T10:03:35.421Z,11.10
2019-05-06T10:06:22.274Z,10.50
2019-05-06T10:09:08.425Z,9.80
2019-05-06T10:11:53.901Z,9.30
2019-05-06T10:14:42.977Z,9.00
2019-05-06T10:17:27.234Z,8.90
2019-05-06T10:20:12.748Z,8.70
2019-05-06T10:22:57.719Z,8.90
2019-05-06T10:25:43.626Z,9.30
2019-05-06T10:28:34.887Z,9.90
2019-05-06T10:31:21.890Z,10.40
2019-05-06T10:34:13.286Z,11.00
2019-05-06T10:37:18.069Z,11.30
2019-05-06T10:40:00.078Z,11.50
2019-05-06T10:42:46.978Z,11.40
2019-05-06T10:45:32.678Z,11.20
2019-05-06T10:48:18.028Z,10.80
2019-05-06T10:51:13.218Z,10.10
2019-05-06T10:53:58.979Z,9.80
2019-05-06T10:57:03.834Z,9.60
2019-05-06T10:59:48.779Z,9.70
2019-05-06T11:03:02.923Z,10.00
2019-05-06T11:05:48.381Z,10.10
2019-05-06T11:08:33.686Z,10.20
2019-05-06T11:11:31.585Z,10.20
2019-05-06T11:14:05.529Z,10.30
2019-05-06T11:16:50.758Z,10.40
2019-05-06T11:19:35.741Z,10.70
2019-05-06T11:22:23.263Z,10.70
2019-05-06T11:25:08.205Z,10.60
2019-05-06T11:27:53.750Z,10.60
2019-05-06T11:30:57.366Z,10.60
2019-05-06T11:34:05.865Z,10.60
2019-05-06T11:37:12.115Z,10.80
2019-05-06T11:39:57.687Z,10.90
2019-05-06T11:42:43.706Z,10.50
2019-05-06T11:45:29.043Z,10.10
2019-05-06T11:48:14.643Z,10.10
2019-05-06T11:51:02.106Z,10.30
2019-05-06T11:53:47.426Z,11.10
2019-05-06T11:56:47.496Z,12.40
2019-05-06T11:59:22.604Z,13.40
2019-05-06T12:02:12.716Z,13.50
2019-05-06T12:04:57.801Z,14.20
2019-05-06T12:07:48.103Z,16.00
2019-05-06T12:10:30.112Z,15.60
2019-05-06T12:13:15.271Z,15.30
2019-05-06T12:16:02.381Z,15.00
2019-05-06T12:18:48.102Z,14.90
2019-05-06T12:21:33.161Z,14.20
2019-05-06T12:24:18.672Z,14.50
2019-05-06T12:27:04.142Z,14.50
2019-05-06T12:29:49.609Z,13.70
2019-05-06T12:32:39.361Z,12.40
2019-05-06T12:35:24.590Z,11.80
2019-05-06T12:38:26.478Z,11.10
2019-05-06T12:40:59.976Z,10.50
2019-05-06T12:43:49.201Z,10.30
2019-05-06T12:46:37.093Z,10.10
2019-05-06T12:49:22.674Z,9.90
2019-05-06T12:52:08.270Z,9.80
2019-05-06T12:55:00.410Z,9.90
2019-05-06T12:57:43.198Z,9.80
2019-05-06T13:00:29.590Z,10.10
2019-05-06T13:03:14.637Z,10.50
2019-05-06T13:06:06.922Z,10.70
2019-05-06T13:08:59.818Z,11.20
2019-05-06T13:11:35.358Z,10.90
2019-05-06T13:14:22.370Z,10.80
2019-05-06T13:17:11.010Z,10.80
2019-05-06T13:19:56.027Z,11.10
2019-05-06T13:22:48.822Z,11.00
2019-05-06T13:25:34.697Z,11.10
2019-05-06T13:28:22.388Z,10.80
2019-05-06T13:31:17.246Z,10.70
2019-05-06T13:34:03.531Z,10.30
2019-05-06T13:36:48.505Z,10.10
2019-05-06T13:39:34.253Z,9.70
2019-05-06T13:42:22.780Z,9.50
2019-05-06T13:45:08.157Z,9.50
2019-05-06T13:48:24.670Z,9.40
2019-05-06T13:51:12.415Z,9.50
2019-05-06T13:53:58.354Z,9.60
2019-05-06T13:56:43.529Z,9.60
2019-05-06T13:59:30.484Z,9.60
2019-05-06T14:02:47.570Z,9.60
2019-05-06T14:05:33.063Z,9.70
2019-05-06T14:08:19.082Z,10.00
2019-05-06T14:11:04.441Z,10.40
2019-05-06T14:13:49.722Z,10.90
2019-05-06T14:16:35.094Z,11.20
2019-05-06T14:19:22.374Z,11.70
2019-05-06T14:22:08.397Z,12.20
2019-05-06T14:25:00.648Z,12.40
2019-05-06T14:27:47.741Z,12.70
2019-05-06T14:30:57.775Z,13.30
2019-05-06T14:33:42.891Z,13.50
2019-05-06T14:36:27.970Z,13.10
2019-05-06T14:39:20.204Z,12.10
2019-05-06T14:42:05.205Z,11.80
2019-05-06T14:44:50.412Z,11.70
2019-05-06T14:47:37.766Z,12.00
2019-05-06T14:50:30.847Z,12.90
2019-05-06T14:53:12.568Z,12.90
2019-05-06T14:55:59.509Z,12.80
2019-05-06T14:59:02.958Z,12.70
2019-05-06T15:01:48.073Z,12.80
2019-05-06T15:04:33.047Z,12.40
2019-05-06T15:07:18.174Z,12.30
2019-05-06T15:10:19.189Z,12.00
2019-05-06T15:12:50.369Z,11.90
2019-05-06T15:15:35.236Z,12.10
2019-05-06T15:18:22.450Z,11.90
2019-05-06T15:21:30.287Z,12.10
2019-05-06T15:23:55.023Z,11.90
2019-05-06T15:26:42.380Z,12.00
2019-05-06T15:29:27.814Z,12.00
2019-05-06T15:32:29.304Z,11.90
2019-05-06T15:35:34.773Z,12.00
2019-05-06T15:38:23.729Z,12.30
2019-05-06T15:41:09.021Z,12.10
2019-05-06T15:43:53.932Z,11.60
2019-05-06T15:46:39.826Z,11.20
2019-05-06T15:49:25.214Z,10.90
2019-05-06T15:52:12.456Z,10.80
2019-05-06T15:54:57.866Z,10.70
2019-05-06T15:57:43.594Z,10.50
2019-05-06T16:00:29.304Z,10.60
2019-05-06T16:03:14.114Z,10.40
2019-05-06T16:05:59.476Z,10.20
2019-05-06T16:08:44.962Z,10.20
2019-05-06T16:11:32.799Z,10.30
2019-05-06T16:14:18.133Z,10.40
2019-05-06T16:17:03.164Z,10.50
2019-05-06T16:19:48.600Z,10.50
2019-05-06T16:22:33.896Z,10.30
2019-05-06T16:25:19.442Z,10.10
2019-05-06T16:28:05.020Z,10.00
2019-05-06T16:30:50.094Z,10.00
2019-05-06T16:33:35.251Z,9.90
2019-05-06T16:36:22.673Z,9.90
2019-05-06T16:39:08.451Z,9.80
2019-05-06T16:41:53.641Z,9.60
2019-05-06T16:44:38.704Z,9.60
2019-05-06T16:47:36.206Z,9.50
2019-05-06T16:50:22.934Z,9.40
2019-05-06T16:53:08.502Z,9.10
2019-05-06T16:56:02.350Z,9.00
2019-05-06T16:58:52.567Z,8.80
2019-05-06T17:01:39.631Z,8.80
2019-05-06T17:04:36.881Z,8.70
2019-05-06T17:07:22.296Z,8.70
2019-05-06T17:10:07.568Z,8.60
2019-05-06T17:12:53.690Z,8.60
2019-05-06T17:15:38.997Z,8.50
2019-05-06T17:18:24.161Z,8.50
2019-05-06T17:21:09.672Z,8.50
2019-05-06T17:23:54.910Z,8.40
2019-05-06T17:26:42.412Z,8.40
2019-05-06T17:29:45.178Z,8.30
2019-05-06T17:32:33.867Z,8.30
2019-05-06T17:35:18.876Z,8.30
2019-05-06T17:38:11.883Z,8.20
2019-05-06T17:40:56.897Z,8.20
2019-05-06T17:43:44.114Z,8.20
2019-05-06T17:46:33.447Z,8.20
2019-05-06T17:49:23.555Z,8.20
2019-05-06T17:52:13.138Z,8.10
2019-05-06T17:54:58.382Z,8.10
2019-05-06T17:57:43.569Z,8.10
2019-05-06T18:00:28.578Z,8.00
2019-05-06T18:03:13.541Z,8.00
2019-05-06T18:05:59.174Z,7.90
2019-05-06T18:08:44.330Z,7.90
2019-05-06T18:11:29.211Z,7.80
2019-05-06T18:14:15.185Z,7.80
2019-05-06T18:17:00.415Z,7.70
2019-05-06T18:19:45.778Z,7.60
2019-05-06T18:22:32.731Z,7.50
2019-05-06T18:25:18.287Z,7.50
2019-05-06T18:28:03.469Z,7.40
2019-05-06T18:30:48.885Z,7.20
2019-05-06T18:33:33.910Z,7.20
2019-05-06T18:36:19.034Z,7.10
2019-05-06T18:39:05.494Z,7.00
2019-05-06T18:41:52.894Z,6.90
2019-05-06T18:44:37.358Z,6.80
2019-05-06T18:47:22.716Z,6.70
2019-05-06T18:50:07.781Z,6.60
2019-05-06T18:52:53.145Z,6.50
2019-05-06T18:55:38.619Z,6.40
2019-05-06T18:58:24.402Z,6.30
2019-05-06T19:01:09.978Z,6.20
2019-05-06T19:04:12.710Z,6.10
2019-05-06T19:07:09.315Z,6.00
2019-05-06T19:09:55.261Z,6.00
2019-05-06T19:12:41.671Z,5.90
2019-05-06T19:15:28.234Z,5.80
2019-05-06T19:18:13.955Z,5.70
2019-05-06T19:21:02.532Z,5.50
2019-05-06T19:23:47.665Z,5.50
2019-05-06T19:26:33.447Z,5.40
2019-05-06T19:29:19.739Z,5.30
2019-05-06T19:32:06.141Z,5.30
2019-05-06T19:34:52.974Z,5.30
2019-05-06T19:37:39.478Z,5.30
2019-05-06T19:40:25.324Z,5.30
2019-05-06T19:43:12.357Z,5.40
2019-05-06T19:45:58.413Z,5.40
2019-05-06T19:48:44.295Z,5.10
2019-05-06T19:51:30.184Z,4.90
2019-05-06T19:54:15.377Z,4.70
2019-05-06T19:57:02.286Z,4.60
2019-05-06T19:59:47.349Z,4.40
2019-05-06T20:02:32.278Z,4.30
2019-05-06T20:05:25.666Z,4.20
2019-05-06T20:08:25.187Z,4.20
2019-05-06T20:11:24.905Z,4.10
2019-05-06T20:14:10.270Z,4.10
2019-05-06T20:16:55.726Z,4.10
2019-05-06T20:19:42.618Z,4.00
2019-05-06T20:22:27.789Z,4.00
2019-05-06T20:25:12.890Z,4.00
2019-05-06T20:27:58.453Z,3.90
2019-05-06T20:30:43.789Z,3.90
2019-05-06T20:33:28.854Z,3.90
2019-05-06T20:36:14.141Z,4.00
2019-05-06T20:38:59.612Z,4.10
2019-05-06T20:41:45.410Z,4.10
2019-05-06T20:44:32.415Z,4.10
2019-05-06T20:47:17.480Z,4.00
2019-05-06T20:50:03.210Z,4.00
2019-05-06T20:52:48.303Z,3.80
2019-05-06T20:55:35.696Z,3.80
2019-05-06T20:58:22.998Z,3.70
2019-05-06T21:01:08.329Z,3.70
2019-05-06T21:03:53.806Z,3.70
2019-05-06T21:06:38.810Z,3.70
2019-05-06T21:09:23.934Z,3.70
2019-05-06T21:12:09.509Z,3.70
2019-05-06T21:14:54.881Z,3.70
2019-05-06T21:17:41.942Z,3.70
2019-05-06T21:20:27.155Z,3.70
2019-05-06T21:23:12.331Z,3.70
2019-05-06T21:25:57.653Z,3.60
2019-05-06T21:28:46.111Z,3.60
2019-05-06T21:31:32.666Z,3.50
2019-05-06T21:34:17.408Z,3.50
2019-05-06T21:37:02.836Z,3.50
2019-05-06T21:39:48.746Z,3.40
2019-05-06T21:42:33.873Z,3.50
2019-05-06T21:45:18.643Z,3.50
2019-05-06T21:48:03.983Z,3.50
2019-05-06T21:50:49.221Z,3.40
2019-05-06T21:53:34.581Z,3.40
2019-05-06T21:56:19.529Z,3.40
2019-05-06T21:59:04.554Z,3.40
2019-05-06T22:01:51.918Z,3.40
2019-05-06T22:04:36.750Z,3.30
2019-05-06T22:07:22.920Z,3.30
2019-05-06T22:10:08.390Z,3.30
2019-05-06T22:12:53.862Z,3.30
2019-05-06T22:15:38.982Z,3.30
2019-05-06T22:18:24.153Z,3.30
2019-05-06T22:21:17.375Z,3.30
2019-05-06T22:24:04.660Z,3.30
2019-05-06T22:26:51.964Z,3.40
2019-05-06T22:29:37.358Z,3.50
2019-05-06T22:32:23.112Z,3.60
2019-05-06T22:35:09.066Z,3.70
2019-05-06T22:37:54.412Z,3.70
2019-05-06T22:40:42.426Z,3.80
2019-05-06T22:43:27.061Z,3.80
2019-05-06T22:46:12.493Z,3.80
2019-05-06T22:48:58.410Z,3.90
2019-05-06T22:51:43.869Z,3.90
2019-05-06T22:54:28.805Z,3.90
2019-05-06T22:57:13.949Z,3.90
2019-05-06T22:59:59.553Z,3.90
2019-05-06T23:03:07.236Z,3.90
2019-05-06T23:05:52.670Z,3.90
2019-05-06T23:08:37.761Z,3.80
2019-05-06T23:11:22.425Z,3.80
2019-05-06T23:14:07.277Z,3.80
2019-05-06T23:16:52.207Z,3.80
2019-05-06T23:19:37.429Z,3.80
2019-05-06T23:22:22.809Z,3.80
2019-05-06T23:25:08.566Z,3.80
2019-05-06T23:27:53.978Z,3.80
2019-05-06T23:30:38.946Z,3.80
2019-05-06T23:33:24.030Z,3.70
2019-05-06T23:36:09.440Z,3.80
2019-05-06T23:39:13.185Z,3.80
2019-05-06T23:42:17.006Z,3.80
2019-05-06T23:45:22.755Z,3.80
2019-05-06T23:48:26.434Z,3.80
2019-05-06T23:51:30.355Z,3.80
2019-05-06T23:54:34.266Z,3.80
2019-05-06T23:57:19.502Z,3.80
